createdAt,value
2017-09-13T00:00:42.514Z,0
2017-09-13T00:01:42.823Z,0
2017-09-13T00:02:42.509Z,0
2017-09-13T00:03:43.149Z,0
2017-09-13T00:04:42.782Z,0
2017-09-13T00:05:43.075Z,0
2017-09-13T00:06:42.781Z,0
2017-09-13T00:07:42.453Z,0
2017-09-13T00:08:42.751Z,0
2017-09-13T00:09:43.069Z,0
2017-09-13T00:10:43.040Z,0
2017-09-13T00:11:43.040Z,0
2017-09-13T00:12:43.032Z,0
2017-09-13T00:13:43.028Z,0
2017-09-13T00:14:42.695Z,0
2017-09-13T00:15:43.026Z,0
2017-09-13T00:16:43.001Z,0
2017-09-13T00:17:42.998Z,0
2017-09-13T00:18:42.996Z,0
2017-09-13T00:19:42.654Z,0
2017-09-13T00:20:42.647Z,0
2017-09-13T00:21:42.347Z,0
2017-09-13T00:22:42.937Z,0
2017-09-13T00:23:42.946Z,0
2017-09-13T00:24:42.941Z,0
2017-09-13T00:25:42.618Z,0
2017-09-13T00:26:42.619Z,0
2017-09-13T00:27:42.924Z,0
2017-09-13T00:28:42.581Z,0
2017-09-13T00:29:42.270Z,0
2017-09-13T00:30:42.881Z,0
2017-09-13T00:31:42.569Z,0
2017-09-13T00:32:42.253Z,0
2017-09-13T00:33:42.852Z,0
2017-09-13T00:34:42.833Z,0
2017-09-13T00:35:42.851Z,0
2017-09-13T00:36:42.515Z,0
2017-09-13T00:37:42.516Z,0
2017-09-13T00:38:42.516Z,0
2017-09-13T00:39:42.798Z,0
2017-09-13T00:40:42.808Z,0
2017-09-13T00:41:42.790Z,0
2017-09-13T00:42:42.773Z,0
2017-09-13T00:43:42.763Z,0
2017-09-13T00:44:42.755Z,0
2017-09-13T00:45:42.755Z,0
2017-09-13T00:46:42.749Z,0
2017-09-13T00:47:42.727Z,0
2017-09-13T00:48:42.419Z,0
2017-09-13T00:49:42.399Z,0
2017-09-13T00:50:42.710Z,0
2017-09-13T00:51:42.090Z,0
2017-09-13T00:52:42.691Z,0
2017-09-13T00:53:42.669Z,0
2017-09-13T00:54:42.366Z,0
2017-09-13T00:55:42.369Z,0
2017-09-13T00:56:42.333Z,0
2017-09-13T00:57:42.341Z,0
2017-09-13T00:58:42.630Z,0
2017-09-13T00:59:42.626Z,0
2017-09-13T01:00:42.615Z,0
2017-09-13T01:01:42.657Z,0
2017-09-13T01:02:42.287Z,0
2017-09-13T01:03:42.581Z,0
2017-09-13T01:04:42.588Z,0
2017-09-13T01:05:41.956Z,0
2017-09-13T01:06:42.270Z,0
2017-09-13T01:07:41.618Z,0
2017-09-13T01:08:42.239Z,0
2017-09-13T01:09:42.549Z,0
2017-09-13T01:10:42.553Z,0
2017-09-13T01:11:42.218Z,0
2017-09-13T01:12:42.205Z,0
2017-09-13T01:13:42.523Z,0
2017-09-13T01:14:42.493Z,0
2017-09-13T01:15:42.798Z,0
2017-09-13T01:16:42.169Z,0
2017-09-13T01:17:42.480Z,0
2017-09-13T01:18:42.468Z,0
2017-09-13T01:19:42.137Z,0
2017-09-13T01:20:42.447Z,0
2017-09-13T01:21:42.441Z,0
2017-09-13T01:22:42.136Z,0
2017-09-13T01:23:42.425Z,0
2017-09-13T01:24:42.427Z,0
2017-09-13T01:25:42.107Z,0
2017-09-13T01:26:42.414Z,0
2017-09-13T01:27:42.074Z,0
2017-09-13T01:28:42.381Z,0
2017-09-13T01:29:42.374Z,0
2017-09-13T01:30:42.355Z,0
2017-09-13T01:31:42.043Z,0
2017-09-13T01:32:42.331Z,0
2017-09-13T01:33:42.032Z,0
2017-09-13T01:34:42.017Z,0
2017-09-13T01:35:41.697Z,0
2017-09-13T01:36:42.301Z,0
2017-09-13T01:37:42.294Z,0
2017-09-13T01:38:41.972Z,0
2017-09-13T01:39:41.986Z,0
2017-09-13T01:40:42.262Z,0
2017-09-13T01:41:41.941Z,0
2017-09-13T01:42:41.936Z,0
2017-09-13T01:43:42.243Z,0
2017-09-13T01:44:42.235Z,0
2017-09-13T01:45:42.225Z,0
2017-09-13T01:46:42.670Z,0
2017-09-13T01:47:41.594Z,0
2017-09-13T01:48:41.898Z,0
2017-09-13T01:49:42.197Z,0
2017-09-13T01:50:41.563Z,0
2017-09-13T01:51:42.210Z,0
2017-09-13T01:52:42.161Z,0
2017-09-13T01:53:42.164Z,0
2017-09-13T01:54:42.157Z,0
2017-09-13T01:55:42.134Z,0
2017-09-13T01:56:41.826Z,0
2017-09-13T01:57:42.126Z,0
2017-09-13T01:58:41.797Z,0
2017-09-13T01:59:41.800Z,0
2017-09-13T02:00:42.104Z,0
2017-09-13T02:01:42.078Z,0
2017-09-13T02:02:42.078Z,0
2017-09-13T02:03:42.068Z,0
2017-09-13T02:04:42.055Z,0
2017-09-13T02:05:41.736Z,0
2017-09-13T02:06:41.722Z,0
2017-09-13T02:07:41.430Z,0
2017-09-13T02:08:41.392Z,0
2017-09-13T02:09:42.021Z,0
2017-09-13T02:10:42.017Z,0
2017-09-13T02:11:42.000Z,0
2017-09-13T02:12:41.999Z,0
2017-09-13T02:13:41.672Z,0
2017-09-13T02:14:41.672Z,0
2017-09-13T02:15:41.651Z,0
2017-09-13T02:16:41.956Z,0
2017-09-13T02:17:41.891Z,0
2017-09-13T02:18:41.628Z,0
2017-09-13T02:19:41.929Z,0
2017-09-13T02:20:41.928Z,0
2017-09-13T02:21:41.907Z,0
2017-09-13T02:22:41.277Z,0
2017-09-13T02:23:41.896Z,0
2017-09-13T02:24:41.882Z,0
2017-09-13T02:25:41.565Z,0
2017-09-13T02:26:41.855Z,0
2017-09-13T02:27:41.859Z,0
2017-09-13T02:28:41.844Z,0
2017-09-13T02:29:41.839Z,0
2017-09-13T02:30:41.823Z,0
2017-09-13T02:31:41.818Z,0
2017-09-13T02:32:41.815Z,0
2017-09-13T02:33:41.796Z,0
2017-09-13T02:34:41.503Z,0
2017-09-13T02:35:41.805Z,0
2017-09-13T02:36:41.776Z,0
2017-09-13T02:37:41.458Z,0
2017-09-13T02:38:41.757Z,0
2017-09-13T02:39:41.757Z,0
2017-09-13T02:40:41.420Z,0
2017-09-13T02:41:41.732Z,0
2017-09-13T02:42:41.725Z,0
2017-09-13T02:43:41.709Z,0
2017-09-13T02:44:41.716Z,0
2017-09-13T02:45:41.684Z,0
2017-09-13T02:46:41.692Z,0
2017-09-13T02:47:41.674Z,0
2017-09-13T02:48:41.910Z,0
2017-09-13T02:49:41.345Z,0
2017-09-13T02:50:41.655Z,0
2017-09-13T02:51:41.632Z,0
2017-09-13T02:52:41.628Z,0
2017-09-13T02:53:41.625Z,0
2017-09-13T02:54:41.624Z,0
2017-09-13T02:55:41.597Z,0
2017-09-13T02:56:41.286Z,0
2017-09-13T02:57:41.590Z,0
2017-09-13T02:58:41.288Z,0
2017-09-13T02:59:41.243Z,0
2017-09-13T03:00:41.255Z,0
2017-09-13T03:01:41.545Z,0
2017-09-13T03:02:41.547Z,0
2017-09-13T03:03:41.523Z,0
2017-09-13T03:04:41.517Z,0
2017-09-13T03:05:41.201Z,0
2017-09-13T03:06:41.504Z,0
2017-09-13T03:07:41.498Z,0
2017-09-13T03:08:41.187Z,0
2017-09-13T03:09:41.496Z,0
2017-09-13T03:10:41.489Z,0
2017-09-13T03:11:41.466Z,0
2017-09-13T03:12:41.454Z,0
2017-09-13T03:13:41.436Z,0
2017-09-13T03:14:41.430Z,0
2017-09-13T03:15:41.430Z,0
2017-09-13T03:16:41.112Z,0
2017-09-13T03:17:41.407Z,0
2017-09-13T03:18:41.407Z,0
2017-09-13T03:19:41.400Z,0
2017-09-13T03:20:41.368Z,0
2017-09-13T03:21:41.386Z,0
2017-09-13T03:22:41.370Z,0
2017-09-13T03:23:41.372Z,0
2017-09-13T03:24:41.332Z,0
2017-09-13T03:25:41.346Z,0
2017-09-13T03:26:41.321Z,0
2017-09-13T03:27:41.326Z,0
2017-09-13T03:28:41.309Z,0
2017-09-13T03:29:41.005Z,0
2017-09-13T03:30:40.985Z,0
2017-09-13T03:31:40.995Z,0
2017-09-13T03:32:40.964Z,0
2017-09-13T03:33:41.281Z,0
2017-09-13T03:34:40.956Z,0
2017-09-13T03:35:41.240Z,0
2017-09-13T03:36:40.954Z,0
2017-09-13T03:37:40.929Z,0
2017-09-13T03:38:41.216Z,0
2017-09-13T03:39:40.593Z,0
2017-09-13T03:40:41.196Z,0
2017-09-13T03:41:40.897Z,0
2017-09-13T03:42:41.195Z,0
2017-09-13T03:43:41.228Z,0
2017-09-13T03:44:41.174Z,0
2017-09-13T03:45:41.190Z,0
2017-09-13T03:46:41.157Z,0
2017-09-13T03:47:41.154Z,0
2017-09-13T03:48:41.187Z,0
2017-09-13T03:49:40.824Z,0
2017-09-13T03:50:40.815Z,0
2017-09-13T03:51:40.832Z,0
2017-09-13T03:52:41.107Z,0
2017-09-13T03:53:40.475Z,0
2017-09-13T03:54:41.086Z,0
2017-09-13T03:55:40.763Z,0
2017-09-13T03:56:40.755Z,0
2017-09-13T03:57:40.760Z,0
2017-09-13T03:58:40.731Z,0
2017-09-13T03:59:41.049Z,0
2017-09-13T04:00:41.030Z,0
2017-09-13T04:01:40.710Z,4
2017-09-13T04:02:41.012Z,4
2017-09-13T04:03:41.007Z,0
2017-09-13T04:04:41.000Z,4
2017-09-13T04:05:40.988Z,4
2017-09-13T04:06:40.985Z,4
2017-09-13T04:07:40.957Z,8
2017-09-13T04:08:40.953Z,8
2017-09-13T04:09:40.654Z,8
2017-09-13T04:10:40.953Z,8
2017-09-13T04:11:40.974Z,12
2017-09-13T04:12:40.624Z,12
2017-09-13T04:13:40.921Z,16
2017-09-13T04:14:40.910Z,20
2017-09-13T04:15:40.910Z,24
2017-09-13T04:16:40.895Z,28
2017-09-13T04:17:40.887Z,32
2017-09-13T04:18:40.575Z,36
2017-09-13T04:19:40.861Z,44
2017-09-13T04:20:40.858Z,48
2017-09-13T04:21:40.536Z,56
2017-09-13T04:22:41.088Z,68
2017-09-13T04:23:40.828Z,80
2017-09-13T04:24:40.831Z,92
2017-09-13T04:25:40.503Z,104
2017-09-13T04:26:40.505Z,124
2017-09-13T04:27:40.803Z,140
2017-09-13T04:28:40.471Z,164
2017-09-13T04:29:40.460Z,184
2017-09-13T04:30:40.781Z,208
2017-09-13T04:31:40.779Z,236
2017-09-13T04:32:40.753Z,268
2017-09-13T04:33:40.739Z,308
2017-09-13T04:34:40.751Z,352
2017-09-13T04:35:40.737Z,392
2017-09-13T04:36:40.712Z,444
2017-09-13T04:37:40.711Z,500
2017-09-13T04:38:40.702Z,564
2017-09-13T04:39:40.687Z,628
2017-09-13T04:40:40.365Z,688
2017-09-13T04:41:40.667Z,748
2017-09-13T04:42:40.673Z,796
2017-09-13T04:43:40.336Z,848
2017-09-13T04:44:40.654Z,912
2017-09-13T04:45:40.630Z,980
2017-09-13T04:46:40.303Z,1044
2017-09-13T04:47:40.302Z,1124
2017-09-13T04:48:40.609Z,1208
2017-09-13T04:49:40.620Z,1292
2017-09-13T04:50:40.288Z,1396
2017-09-13T04:51:40.588Z,1480
2017-09-13T04:52:40.275Z,1544
2017-09-13T04:53:40.814Z,1576
2017-09-13T04:54:40.261Z,1592
2017-09-13T04:55:40.556Z,1608
2017-09-13T04:56:40.540Z,1636
2017-09-13T04:57:40.220Z,1700
2017-09-13T04:58:40.539Z,1868
2017-09-13T04:59:40.522Z,2084
2017-09-13T05:00:39.577Z,2356
2017-09-13T05:01:40.492Z,2628
2017-09-13T05:02:40.182Z,2872
2017-09-13T05:03:40.482Z,3004
2017-09-13T05:04:40.480Z,3092
2017-09-13T05:05:40.471Z,3092
2017-09-13T05:06:40.160Z,3144
2017-09-13T05:07:40.138Z,3332
2017-09-13T05:08:40.133Z,3520
2017-09-13T05:09:40.423Z,3804
2017-09-13T05:10:40.431Z,4012
2017-09-13T05:11:40.420Z,4052
2017-09-13T05:12:40.106Z,4044
2017-09-13T05:13:40.403Z,4116
2017-09-13T05:14:40.411Z,4212
2017-09-13T05:15:40.400Z,4292
2017-09-13T05:16:40.403Z,4252
2017-09-13T05:17:40.382Z,3800
2017-09-13T05:18:40.378Z,3092
2017-09-13T05:19:40.376Z,2380
2017-09-13T05:20:40.356Z,2052
2017-09-13T05:21:40.370Z,2020
2017-09-13T05:22:40.352Z,2028
2017-09-13T05:23:39.720Z,1908
2017-09-13T05:24:40.025Z,1808
2017-09-13T05:25:40.024Z,1776
2017-09-13T05:26:40.331Z,1812
2017-09-13T05:27:40.324Z,1900
2017-09-13T05:28:40.316Z,2080
2017-09-13T05:29:40.305Z,2044
2017-09-13T05:30:40.316Z,1880
2017-09-13T05:31:39.977Z,1820
2017-09-13T05:32:40.000Z,1780
2017-09-13T05:33:39.965Z,1764
2017-09-13T05:34:39.354Z,1764
2017-09-13T05:35:40.293Z,1740
2017-09-13T05:36:40.267Z,1708
2017-09-13T05:37:39.963Z,1656
2017-09-13T05:38:39.948Z,1612
2017-09-13T05:39:39.939Z,1600
2017-09-13T05:40:39.931Z,1668
2017-09-13T05:41:39.934Z,1860
2017-09-13T05:42:39.932Z,2212
2017-09-13T05:43:40.242Z,2680
2017-09-13T05:44:40.218Z,3252
2017-09-13T05:45:40.215Z,3852
2017-09-13T05:46:39.910Z,4288
2017-09-13T05:47:40.207Z,4396
2017-09-13T05:48:39.586Z,4260
2017-09-13T05:49:39.871Z,4004
2017-09-13T05:50:39.885Z,3564
2017-09-13T05:51:39.562Z,3092
2017-09-13T05:52:39.558Z,2792
2017-09-13T05:53:40.171Z,2740
2017-09-13T05:54:39.849Z,2832
2017-09-13T05:55:40.473Z,3076
2017-09-13T05:56:40.149Z,3240
2017-09-13T05:57:40.149Z,3272
2017-09-13T05:58:40.139Z,3160
2017-09-13T05:59:39.820Z,3060
2017-09-13T06:00:40.374Z,3184
2017-09-13T06:01:40.119Z,3652
2017-09-13T06:02:40.113Z,4328
2017-09-13T06:03:40.110Z,5024
2017-09-13T06:04:40.118Z,5504
2017-09-13T06:05:40.105Z,5632
2017-09-13T06:06:40.085Z,5712
2017-09-13T06:07:39.763Z,6156
2017-09-13T06:08:39.789Z,6940
2017-09-13T06:09:40.058Z,7580
2017-09-13T06:10:39.446Z,7576
2017-09-13T06:11:39.442Z,6792
2017-09-13T06:12:39.437Z,5544
2017-09-13T06:13:40.030Z,4404
2017-09-13T06:14:40.025Z,3548
2017-09-13T06:15:39.726Z,2972
2017-09-13T06:16:39.713Z,2580
2017-09-13T06:17:40.021Z,2336
2017-09-13T06:18:40.024Z,2356
2017-09-13T06:19:39.383Z,2592
2017-09-13T06:20:39.711Z,2756
2017-09-13T06:21:39.991Z,2556
2017-09-13T06:22:39.696Z,2108
2017-09-13T06:23:39.687Z,1700
2017-09-13T06:24:39.974Z,1476
2017-09-13T06:25:39.652Z,1400
2017-09-13T06:26:39.984Z,1424
2017-09-13T06:27:39.967Z,1520
2017-09-13T06:28:39.650Z,1644
2017-09-13T06:29:39.954Z,1736
2017-09-13T06:30:39.941Z,1764
2017-09-13T06:31:39.942Z,1836
2017-09-13T06:32:39.951Z,2036
2017-09-13T06:33:39.618Z,2240
2017-09-13T06:34:39.938Z,2392
2017-09-13T06:35:39.604Z,2456
2017-09-13T06:36:39.920Z,2436
2017-09-13T06:37:39.900Z,2376
2017-09-13T06:38:39.285Z,2112
2017-09-13T06:39:39.585Z,1976
2017-09-13T06:40:39.576Z,1872
2017-09-13T06:41:39.576Z,2136
2017-09-13T06:42:39.876Z,2608
2017-09-13T06:43:39.553Z,3104
2017-09-13T06:44:39.870Z,3392
2017-09-13T06:45:38.921Z,3560
2017-09-13T06:46:39.845Z,3040
2017-09-13T06:47:39.852Z,2624
2017-09-13T06:48:39.526Z,2580
2017-09-13T06:49:39.525Z,2444
2017-09-13T06:50:39.822Z,2560
2017-09-13T06:51:39.191Z,2632
2017-09-13T06:52:39.826Z,2336
2017-09-13T06:53:39.513Z,1788
2017-09-13T06:54:39.812Z,1544
2017-09-13T06:55:39.799Z,1608
2017-09-13T06:56:39.183Z,1904
2017-09-13T06:57:39.770Z,2540
2017-09-13T06:58:39.160Z,3528
2017-09-13T06:59:39.449Z,4364
2017-09-13T07:00:39.147Z,4992
2017-09-13T07:01:39.783Z,5356
2017-09-13T07:02:39.767Z,5728
2017-09-13T07:03:39.429Z,5852
2017-09-13T07:04:39.741Z,5708
2017-09-13T07:05:39.430Z,5948
2017-09-13T07:06:39.731Z,6260
2017-09-13T07:07:39.720Z,6496
2017-09-13T07:08:39.396Z,6332
2017-09-13T07:09:39.706Z,6184
2017-09-13T07:10:39.717Z,6524
2017-09-13T07:11:39.385Z,6276
2017-09-13T07:12:39.692Z,5832
2017-09-13T07:13:39.377Z,5764
2017-09-13T07:14:39.374Z,5768
2017-09-13T07:15:39.670Z,5040
2017-09-13T07:16:39.361Z,3968
2017-09-13T07:17:39.679Z,3416
2017-09-13T07:18:39.042Z,3652
2017-09-13T07:19:39.340Z,4112
2017-09-13T07:20:39.646Z,4288
2017-09-13T07:21:39.344Z,4476
2017-09-13T07:22:39.638Z,5256
2017-09-13T07:23:39.020Z,6428
2017-09-13T07:24:39.320Z,7112
2017-09-13T07:25:39.634Z,7504
2017-09-13T07:26:39.617Z,8132
2017-09-13T07:27:38.673Z,8444
2017-09-13T07:28:39.605Z,8496
2017-09-13T07:29:39.600Z,7316
2017-09-13T07:30:39.601Z,7256
2017-09-13T07:31:39.593Z,8776
2017-09-13T07:32:39.588Z,10680
2017-09-13T07:33:39.266Z,11188
2017-09-13T07:34:38.948Z,9332
2017-09-13T07:35:39.591Z,8252
2017-09-13T07:36:39.247Z,8660
2017-09-13T07:37:39.561Z,9676
2017-09-13T07:38:39.551Z,7552
2017-09-13T07:39:39.552Z,6260
2017-09-13T07:40:39.544Z,5764
2017-09-13T07:41:39.532Z,5980
2017-09-13T07:42:39.217Z,7176
2017-09-13T07:43:39.533Z,9616
2017-09-13T07:44:39.208Z,10548
2017-09-13T07:45:39.521Z,11172
2017-09-13T07:46:39.202Z,12956
2017-09-13T07:47:39.188Z,13364
2017-09-13T07:48:39.513Z,13128
2017-09-13T07:49:39.501Z,12384
2017-09-13T07:50:39.479Z,11964
2017-09-13T07:51:39.169Z,10688
2017-09-13T07:52:39.171Z,8952
2017-09-13T07:53:38.855Z,9300
2017-09-13T07:54:39.474Z,8760
2017-09-13T07:55:39.475Z,9328
2017-09-13T07:56:39.453Z,9372
2017-09-13T07:57:39.155Z,9212
2017-09-13T07:58:39.443Z,8744
2017-09-13T07:59:39.451Z,8256
2017-09-13T08:00:39.438Z,10444
2017-09-13T08:01:39.433Z,12380
2017-09-13T08:02:39.123Z,11104
2017-09-13T08:03:39.445Z,9452
2017-09-13T08:04:39.424Z,8560
2017-09-13T08:05:39.113Z,8600
2017-09-13T08:06:39.414Z,8884
2017-09-13T08:07:39.114Z,8768
2017-09-13T08:08:39.393Z,7884
2017-09-13T08:09:39.084Z,6912
2017-09-13T08:10:39.417Z,6284
2017-09-13T08:11:39.402Z,5824
2017-09-13T08:12:39.398Z,5052
2017-09-13T08:13:39.390Z,4976
2017-09-13T08:14:39.372Z,4904
2017-09-13T08:15:39.371Z,4588
2017-09-13T08:16:39.376Z,4288
2017-09-13T08:17:39.353Z,5604
2017-09-13T08:18:39.061Z,5776
2017-09-13T08:19:39.357Z,5548
2017-09-13T08:20:38.723Z,5344
2017-09-13T08:21:39.349Z,4976
2017-09-13T08:22:39.037Z,4864
2017-09-13T08:23:39.339Z,4180
2017-09-13T08:24:39.032Z,4028
2017-09-13T08:25:39.342Z,4572
2017-09-13T08:26:38.996Z,5416
2017-09-13T08:27:39.301Z,4828
2017-09-13T08:28:39.013Z,4720
2017-09-13T08:29:38.992Z,4440
2017-09-13T08:30:39.297Z,5248
2017-09-13T08:31:39.307Z,6352
2017-09-13T08:32:39.309Z,6340
2017-09-13T08:33:38.981Z,6068
2017-09-13T08:34:38.973Z,5964
2017-09-13T08:35:39.300Z,5448
2017-09-13T08:36:39.278Z,5552
2017-09-13T08:37:38.959Z,5528
2017-09-13T08:38:38.957Z,5556
2017-09-13T08:39:38.878Z,6452
2017-09-13T08:40:38.943Z,7228
2017-09-13T08:41:39.493Z,8068
2017-09-13T08:42:39.247Z,7684
2017-09-13T08:43:39.255Z,7396
2017-09-13T08:44:39.240Z,7988
2017-09-13T08:45:38.913Z,7964
2017-09-13T08:46:39.620Z,7188
2017-09-13T08:47:38.915Z,6620
2017-09-13T08:48:38.948Z,6320
2017-09-13T08:49:38.924Z,6048
2017-09-13T08:50:39.211Z,5404
2017-09-13T08:51:39.545Z,5284
2017-09-13T08:52:38.881Z,5884
2017-09-13T08:53:39.199Z,6764
2017-09-13T08:54:38.562Z,7060
2017-09-13T08:55:39.160Z,6004
2017-09-13T08:56:38.554Z,6228
2017-09-13T08:57:38.559Z,6420
2017-09-13T08:58:38.853Z,8240
2017-09-13T08:59:39.159Z,8304
2017-09-13T09:00:39.148Z,7148
2017-09-13T09:01:39.147Z,8724
2017-09-13T09:02:39.142Z,9132
2017-09-13T09:03:38.832Z,8232
2017-09-13T09:04:39.145Z,7640
2017-09-13T09:05:39.136Z,6532
2017-09-13T09:06:38.818Z,7392
2017-09-13T09:07:38.749Z,8264
2017-09-13T09:08:38.479Z,8508
2017-09-13T09:09:39.107Z,9128
2017-09-13T09:10:39.089Z,9616
2017-09-13T09:11:39.084Z,10284
2017-09-13T09:12:39.019Z,12008
2017-09-13T09:13:39.096Z,12144
2017-09-13T09:14:39.087Z,12032
2017-09-13T09:15:39.083Z,11504
2017-09-13T09:16:38.750Z,10952
2017-09-13T09:17:38.997Z,9952
2017-09-13T09:18:38.754Z,9808
2017-09-13T09:19:39.062Z,10520
2017-09-13T09:20:39.063Z,10196
2017-09-13T09:21:38.729Z,10720
2017-09-13T09:22:38.754Z,9600
2017-09-13T09:23:38.721Z,10588
2017-09-13T09:24:38.718Z,11160
2017-09-13T09:25:38.722Z,10756
2017-09-13T09:26:38.702Z,9860
2017-09-13T09:27:39.011Z,9496
2017-09-13T09:28:38.950Z,10384
2017-09-13T09:29:38.696Z,11268
2017-09-13T09:30:38.676Z,11488
2017-09-13T09:31:38.680Z,11600
2017-09-13T09:32:38.681Z,12584
2017-09-13T09:33:39.242Z,12036
2017-09-13T09:34:39.000Z,11736
2017-09-13T09:35:38.973Z,10412
2017-09-13T09:36:38.339Z,9180
2017-09-13T09:37:38.963Z,8268
2017-09-13T09:38:38.918Z,9716
2017-09-13T09:39:38.337Z,10392
2017-09-13T09:40:38.967Z,10680
2017-09-13T09:41:38.637Z,10068
2017-09-13T09:42:38.632Z,10260
2017-09-13T09:43:39.182Z,11196
2017-09-13T09:44:38.632Z,11928
2017-09-13T09:45:38.622Z,11336
2017-09-13T09:46:38.599Z,12120
2017-09-13T09:47:38.619Z,15544
2017-09-13T09:48:38.901Z,16480
2017-09-13T09:49:38.929Z,13648
2017-09-13T09:50:38.605Z,11376
2017-09-13T09:51:38.909Z,10044
2017-09-13T09:52:38.891Z,11628
2017-09-13T09:53:38.581Z,10660
2017-09-13T09:54:39.140Z,10796
2017-09-13T09:55:38.570Z,10956
2017-09-13T09:56:38.581Z,15864
2017-09-13T09:57:38.561Z,13728
2017-09-13T09:58:38.562Z,13436
2017-09-13T09:59:39.605Z,11296
2017-09-13T10:00:38.571Z,10284
2017-09-13T10:01:38.560Z,11560
2017-09-13T10:02:38.225Z,12748
2017-09-13T10:03:38.533Z,13100
2017-09-13T10:04:38.484Z,14804
2017-09-13T10:05:38.532Z,18848
2017-09-13T10:06:38.540Z,22688
2017-09-13T10:07:37.903Z,23072
2017-09-13T10:08:38.515Z,16608
2017-09-13T10:09:38.522Z,14640
2017-09-13T10:10:38.514Z,18816
2017-09-13T10:11:38.838Z,20832
2017-09-13T10:12:38.507Z,19040
2017-09-13T10:13:38.813Z,20864
2017-09-13T10:14:38.815Z,23968
2017-09-13T10:15:38.484Z,22336
2017-09-13T10:16:38.803Z,19232
2017-09-13T10:17:38.810Z,19584
2017-09-13T10:18:38.801Z,18240
2017-09-13T10:19:38.494Z,18464
2017-09-13T10:20:39.156Z,20576
2017-09-13T10:21:38.469Z,18592
2017-09-13T10:22:38.797Z,17504
2017-09-13T10:23:38.799Z,13312
2017-09-13T10:24:38.469Z,18592
2017-09-13T10:25:38.729Z,21088
2017-09-13T10:26:38.795Z,21664
2017-09-13T10:27:38.465Z,18336
2017-09-13T10:28:38.809Z,9904
2017-09-13T10:29:38.788Z,6668
2017-09-13T10:30:38.711Z,6684
2017-09-13T10:31:38.787Z,6076
2017-09-13T10:32:38.763Z,6172
2017-09-13T10:33:38.445Z,5976
2017-09-13T10:34:38.781Z,6696
2017-09-13T10:35:38.766Z,11780
2017-09-13T10:36:38.757Z,13004
2017-09-13T10:37:38.443Z,13452
2017-09-13T10:38:38.449Z,13244
2017-09-13T10:39:38.444Z,10468
2017-09-13T10:40:38.441Z,8204
2017-09-13T10:41:38.835Z,7932
2017-09-13T10:42:38.754Z,8012
2017-09-13T10:43:38.127Z,6732
2017-09-13T10:44:38.741Z,6276
2017-09-13T10:45:38.434Z,7420
2017-09-13T10:46:39.037Z,11988
2017-09-13T10:47:38.426Z,19392
2017-09-13T10:48:38.436Z,18112
2017-09-13T10:49:38.732Z,12972
2017-09-13T10:50:38.428Z,12356
2017-09-13T10:51:38.986Z,10656
2017-09-13T10:52:38.413Z,8432
2017-09-13T10:53:38.720Z,9176
2017-09-13T10:54:38.748Z,10356
2017-09-13T10:55:38.724Z,16192
2017-09-13T10:56:38.662Z,14824
2017-09-13T10:57:38.735Z,11384
2017-09-13T10:58:38.392Z,7400
2017-09-13T10:59:38.701Z,5928
2017-09-13T11:00:38.402Z,5636
2017-09-13T11:01:38.703Z,6760
2017-09-13T11:02:38.692Z,6068
2017-09-13T11:03:38.069Z,6148
2017-09-13T11:04:38.701Z,6172
2017-09-13T11:05:38.699Z,6564
2017-09-13T11:06:38.682Z,6544
2017-09-13T11:07:38.688Z,6004
2017-09-13T11:08:38.059Z,5868
2017-09-13T11:09:38.671Z,6148
2017-09-13T11:10:38.684Z,6364
2017-09-13T11:11:38.055Z,7712
2017-09-13T11:12:38.972Z,8228
2017-09-13T11:13:38.357Z,7868
2017-09-13T11:14:38.366Z,9296
2017-09-13T11:15:38.356Z,13828
2017-09-13T11:16:38.657Z,16332
2017-09-13T11:17:38.595Z,17216
2017-09-13T11:18:38.654Z,18080
2017-09-13T11:19:38.651Z,19968
2017-09-13T11:20:38.642Z,20192
2017-09-13T11:21:38.337Z,20128
2017-09-13T11:22:38.579Z,18848
2017-09-13T11:23:38.642Z,17728
2017-09-13T11:24:38.658Z,19008
2017-09-13T11:25:38.623Z,19648
2017-09-13T11:26:38.645Z,18432
2017-09-13T11:27:38.640Z,18656
2017-09-13T11:28:38.313Z,17888
2017-09-13T11:29:38.659Z,18016
2017-09-13T11:30:37.701Z,20544
2017-09-13T11:31:38.314Z,21472
2017-09-13T11:32:38.633Z,21632
2017-09-13T11:33:38.586Z,21344
2017-09-13T11:34:38.624Z,21536
2017-09-13T11:35:38.625Z,20800
2017-09-13T11:36:38.321Z,19136
2017-09-13T11:37:38.615Z,21088
2017-09-13T11:38:38.929Z,20256
2017-09-13T11:39:38.617Z,18304
2017-09-13T11:40:38.622Z,19040
2017-09-13T11:41:38.306Z,19552
2017-09-13T11:42:38.631Z,19264
2017-09-13T11:43:38.877Z,15024
2017-09-13T11:44:38.606Z,13016
2017-09-13T11:45:38.299Z,13080
2017-09-13T11:46:38.315Z,12016
2017-09-13T11:47:38.624Z,13744
2017-09-13T11:48:39.237Z,12036
2017-09-13T11:49:38.003Z,10172
2017-09-13T11:50:38.974Z,11152
2017-09-13T11:51:38.618Z,10828
2017-09-13T11:52:37.691Z,10712
2017-09-13T11:53:38.310Z,11948
2017-09-13T11:54:38.334Z,13136
2017-09-13T11:55:38.311Z,13684
2017-09-13T11:56:38.300Z,13312
2017-09-13T11:57:38.008Z,11936
2017-09-13T11:58:38.605Z,10840
2017-09-13T11:59:38.556Z,9208
2017-09-13T12:00:38.628Z,7948
2017-09-13T12:01:38.296Z,8412
2017-09-13T12:02:38.611Z,7212
2017-09-13T12:03:38.621Z,6032
2017-09-13T12:04:38.896Z,6060
2017-09-13T12:05:38.610Z,5224
2017-09-13T12:06:38.300Z,4840
2017-09-13T12:07:38.293Z,5092
2017-09-13T12:08:38.596Z,5532
2017-09-13T12:09:38.949Z,5276
2017-09-13T12:10:38.293Z,4920
2017-09-13T12:11:38.288Z,5156
2017-09-13T12:12:38.278Z,5028
2017-09-13T12:13:38.289Z,5360
2017-09-13T12:14:38.931Z,5720
2017-09-13T12:15:38.585Z,4704
2017-09-13T12:16:38.577Z,4896
2017-09-13T12:17:38.591Z,4668
2017-09-13T12:18:38.588Z,4920
2017-09-13T12:19:38.258Z,7368
2017-09-13T12:20:37.967Z,5332
2017-09-13T12:21:37.959Z,5244
2017-09-13T12:22:38.576Z,8404
2017-09-13T12:23:38.273Z,7656
2017-09-13T12:24:37.952Z,5764
2017-09-13T12:25:38.822Z,7908
2017-09-13T12:26:38.566Z,5952
2017-09-13T12:27:38.570Z,5816
2017-09-13T12:28:38.249Z,4920
2017-09-13T12:29:38.251Z,9836
2017-09-13T12:30:38.826Z,11400
2017-09-13T12:31:38.245Z,5656
2017-09-13T12:32:38.545Z,4704
2017-09-13T12:33:38.545Z,4484
2017-09-13T12:34:38.545Z,4588
2017-09-13T12:35:38.226Z,4460
2017-09-13T12:36:38.543Z,4424
2017-09-13T12:37:38.522Z,4560
2017-09-13T12:38:38.536Z,5344
2017-09-13T12:39:38.218Z,5324
2017-09-13T12:40:38.456Z,5520
2017-09-13T12:41:38.522Z,5524
2017-09-13T12:42:38.525Z,5336
2017-09-13T12:43:38.199Z,6372
2017-09-13T12:44:38.538Z,7052
2017-09-13T12:45:38.516Z,5336
2017-09-13T12:46:38.204Z,8280
2017-09-13T12:47:38.513Z,5108
2017-09-13T12:48:38.502Z,5184
2017-09-13T12:49:37.877Z,4600
2017-09-13T12:50:38.200Z,5240
2017-09-13T12:51:38.731Z,6400
2017-09-13T12:52:38.496Z,5772
2017-09-13T12:53:37.870Z,4804
2017-09-13T12:54:38.505Z,4496
2017-09-13T12:55:38.178Z,4320
2017-09-13T12:56:38.429Z,4256
2017-09-13T12:57:37.853Z,4392
2017-09-13T12:58:38.476Z,4924
2017-09-13T12:59:38.472Z,8740
2017-09-13T13:00:38.163Z,8040
2017-09-13T13:01:38.784Z,7548
2017-09-13T13:02:38.142Z,13148
2017-09-13T13:03:38.150Z,11736
2017-09-13T13:04:37.834Z,13436
2017-09-13T13:05:38.456Z,6508
2017-09-13T13:06:38.707Z,5560
2017-09-13T13:07:38.440Z,4780
2017-09-13T13:08:38.441Z,4312
2017-09-13T13:09:38.129Z,5612
2017-09-13T13:10:38.443Z,5520
2017-09-13T13:11:37.808Z,9444
2017-09-13T13:12:38.446Z,6196
2017-09-13T13:13:38.119Z,5464
2017-09-13T13:14:38.118Z,9968
2017-09-13T13:15:38.105Z,6740
2017-09-13T13:16:38.417Z,7388
2017-09-13T13:17:38.686Z,11064
2017-09-13T13:18:38.418Z,11644
2017-09-13T13:19:38.111Z,12828
2017-09-13T13:20:38.413Z,12328
2017-09-13T13:21:38.098Z,14868
2017-09-13T13:22:38.727Z,11128
2017-09-13T13:23:38.411Z,13112
2017-09-13T13:24:38.410Z,14780
2017-09-13T13:25:38.093Z,14048
2017-09-13T13:26:38.398Z,6588
2017-09-13T13:27:38.653Z,4996
2017-09-13T13:28:38.396Z,4556
2017-09-13T13:29:38.390Z,4368
2017-09-13T13:30:38.394Z,4572
2017-09-13T13:31:38.406Z,4396
2017-09-13T13:32:38.380Z,4340
2017-09-13T13:33:38.069Z,4264
2017-09-13T13:34:38.381Z,4216
2017-09-13T13:35:38.077Z,4184
2017-09-13T13:36:38.073Z,4128
2017-09-13T13:37:38.378Z,4120
2017-09-13T13:38:37.753Z,4300
2017-09-13T13:39:38.387Z,4152
2017-09-13T13:40:38.055Z,4148